createdAt,value
2022-11-05T00:02:06.327Z,97.64
2022-11-05T00:04:32.675Z,97.99
2022-11-05T00:07:07.121Z,97.93
2022-11-05T00:09:34.214Z,97.50
2022-11-05T00:12:09.640Z,97.57
2022-11-05T00:14:35.987Z,97.50
2022-11-05T00:17:02.342Z,97.49
2022-11-05T00:19:28.647Z,97.39
2022-11-05T00:21:54.964Z,97.26
2022-11-05T00:24:24.383Z,97.40
2022-11-05T00:26:50.787Z,97.31
2022-11-05T00:29:17.081Z,97.51
2022-11-05T00:31:43.391Z,97.31
2022-11-05T00:34:09.709Z,97.32
2022-11-05T00:36:36.019Z,97.59
2022-11-05T00:39:02.336Z,97.92
2022-11-05T00:41:28.639Z,98.17
2022-11-05T00:43:54.964Z,98.33
2022-11-05T00:46:21.317Z,98.39
2022-11-05T00:48:47.635Z,98.37
2022-11-05T00:51:13.970Z,97.82
2022-11-05T00:53:40.285Z,97.02
2022-11-05T00:56:06.873Z,97.34
2022-11-05T00:58:33.289Z,97.43
2022-11-05T01:01:00.831Z,97.59
2022-11-05T01:03:36.205Z,97.49
2022-11-05T01:06:16.297Z,97.68
2022-11-05T01:08:44.216Z,97.73
2022-11-05T01:11:13.954Z,97.74
2022-11-05T01:13:40.552Z,97.80
2022-11-05T01:16:10.037Z,98.20
2022-11-05T01:18:37.949Z,97.98
2022-11-05T01:21:12.468Z,98.11
2022-11-05T01:23:38.807Z,97.76
2022-11-05T01:26:05.294Z,97.51
2022-11-05T01:28:31.852Z,97.65
2022-11-05T01:30:58.250Z,97.39
2022-11-05T01:33:24.732Z,97.82
2022-11-05T01:35:51.116Z,97.81
2022-11-05T01:38:18.360Z,97.82
2022-11-05T01:40:45.300Z,98.02
2022-11-05T01:43:17.991Z,97.84
2022-11-05T01:45:47.722Z,97.72
2022-11-05T01:48:21.468Z,98.09
2022-11-05T01:50:56.190Z,97.79
2022-11-05T01:53:47.196Z,98.14
2022-11-05T01:56:22.124Z,98.08
2022-11-05T01:59:02.130Z,98.31
2022-11-05T02:01:28.810Z,98.32
2022-11-05T02:03:59.791Z,97.88
2022-11-05T02:06:28.681Z,97.92
2022-11-05T02:09:08.863Z,97.51
2022-11-05T02:11:35.193Z,97.84
2022-11-05T02:14:01.604Z,97.95
2022-11-05T02:16:45.959Z,97.84
2022-11-05T02:19:34.017Z,97.92
2022-11-05T02:22:06.349Z,98.08
2022-11-05T02:25:05.506Z,98.05
2022-11-05T02:27:43.888Z,98.27
2022-11-05T02:30:31.911Z,98.37
2022-11-05T02:33:18.483Z,98.25
2022-11-05T02:35:49.368Z,98.15
2022-11-05T02:38:50.218Z,98.05
2022-11-05T02:41:25.312Z,98.00
2022-11-05T02:43:58.871Z,98.08
2022-11-05T02:46:42.433Z,97.76
2022-11-05T02:49:38.965Z,97.50
2022-11-05T02:52:12.810Z,97.46
2022-11-05T02:55:14.570Z,97.56
2022-11-05T02:57:46.259Z,97.54
2022-11-05T03:00:48.898Z,97.30
2022-11-05T03:03:45.452Z,97.66
2022-11-05T03:06:23.752Z,97.78
2022-11-05T03:09:14.875Z,97.53
2022-11-05T03:11:47.915Z,97.83
2022-11-05T03:14:36.613Z,97.95
2022-11-05T03:17:17.449Z,98.17
2022-11-05T03:19:53.580Z,98.13
2022-11-05T03:22:34.512Z,97.92
2022-11-05T03:25:08.073Z,97.96
2022-11-05T03:27:39.672Z,97.94
2022-11-05T03:30:09.185Z,98.02
2022-11-05T03:32:40.020Z,97.87
2022-11-05T03:35:14.522Z,98.03
2022-11-05T03:37:44.451Z,97.84
2022-11-05T03:40:14.002Z,98.03
2022-11-05T03:42:46.075Z,97.84
2022-11-05T03:45:18.796Z,97.80
2022-11-05T03:47:49.805Z,97.53
2022-11-05T03:50:35.884Z,97.36
2022-11-05T03:53:29.164Z,97.09
2022-11-05T03:56:03.665Z,96.96
2022-11-05T03:58:30.832Z,96.83
2022-11-05T04:01:00.869Z,96.83
2022-11-05T04:03:27.163Z,97.06
2022-11-05T04:05:55.865Z,97.16
2022-11-05T04:08:22.169Z,97.30
2022-11-05T04:10:48.481Z,97.46
2022-11-05T04:13:14.786Z,97.61
2022-11-05T04:15:41.136Z,97.88
2022-11-05T04:18:07.452Z,97.96
2022-11-05T04:20:33.747Z,98.15
2022-11-05T04:23:04.688Z,98.37
2022-11-05T04:25:30.984Z,98.79
2022-11-05T04:28:00.436Z,98.73
2022-11-05T04:30:26.812Z,98.90
2022-11-05T04:33:06.547Z,98.93
2022-11-05T04:35:44.805Z,99.02
2022-11-05T04:38:16.786Z,99.04
2022-11-05T04:40:44.413Z,99.56
2022-11-05T04:43:16.376Z,99.49
2022-11-05T04:45:43.310Z,99.69
2022-11-05T04:48:10.517Z,99.81
2022-11-05T04:50:37.159Z,99.82
2022-11-05T04:53:03.464Z,99.48
2022-11-05T04:55:29.810Z,99.33
2022-11-05T04:57:56.155Z,99.30
2022-11-05T05:00:23.719Z,99.55
2022-11-05T05:02:50.267Z,99.65
2022-11-05T05:05:16.726Z,99.72
2022-11-05T05:07:43.076Z,99.82
2022-11-05T05:10:10.678Z,99.60
2022-11-05T05:12:37.032Z,100.00
2022-11-05T05:15:04.359Z,99.86
2022-11-05T05:17:30.680Z,99.96
2022-11-05T05:19:57.007Z,100.00
2022-11-05T05:22:23.327Z,99.87
2022-11-05T05:24:52.755Z,99.84
2022-11-05T05:27:19.529Z,99.79
2022-11-05T05:29:45.836Z,99.67
2022-11-05T05:32:12.141Z,99.49
2022-11-05T05:34:38.435Z,99.53
2022-11-05T05:37:04.756Z,99.38
2022-11-05T05:39:31.093Z,99.16
2022-11-05T05:41:57.471Z,99.67
2022-11-05T05:44:23.987Z,99.69
2022-11-05T05:46:50.297Z,99.22
2022-11-05T05:49:16.604Z,99.13
2022-11-05T05:51:42.953Z,98.83
2022-11-05T05:54:10.831Z,99.16
2022-11-05T05:56:37.151Z,99.04
2022-11-05T05:59:05.351Z,99.03
2022-11-05T06:01:31.882Z,98.92
2022-11-05T06:03:58.319Z,98.93
2022-11-05T06:06:24.622Z,98.91
2022-11-05T06:08:50.923Z,98.95
2022-11-05T06:11:17.266Z,99.07
2022-11-05T06:13:43.664Z,99.01
2022-11-05T06:16:10.313Z,99.09
2022-11-05T06:18:37.381Z,99.09
2022-11-05T06:21:05.710Z,99.04
2022-11-05T06:23:32.866Z,99.02
2022-11-05T06:26:00.973Z,98.99
2022-11-05T06:28:27.338Z,99.23
2022-11-05T06:30:53.640Z,98.91
2022-11-05T06:33:19.980Z,98.96
2022-11-05T06:35:46.385Z,99.14
2022-11-05T06:38:12.740Z,99.12
2022-11-05T06:40:39.270Z,99.08
2022-11-05T06:43:05.565Z,99.62
2022-11-05T06:45:31.910Z,99.42
2022-11-05T06:47:58.998Z,99.43
2022-11-05T06:50:26.820Z,99.08
2022-11-05T06:53:00.650Z,98.66
2022-11-05T06:55:28.895Z,98.48
2022-11-05T06:57:56.385Z,98.49
2022-11-05T07:00:23.292Z,98.46
2022-11-05T07:02:50.109Z,98.15
2022-11-05T07:05:16.874Z,98.16
2022-11-05T07:07:45.157Z,98.11
2022-11-05T07:10:14.798Z,98.20
2022-11-05T07:12:41.141Z,98.25
2022-11-05T07:15:10.700Z,98.10
2022-11-05T07:17:37.218Z,98.32
2022-11-05T07:20:05.503Z,98.37
2022-11-05T07:22:33.155Z,98.53
2022-11-05T07:24:59.581Z,98.48
2022-11-05T07:27:25.922Z,98.15
2022-11-05T07:29:52.286Z,98.28
2022-11-05T07:32:18.691Z,98.14
2022-11-05T07:34:45.034Z,97.41
2022-11-05T07:37:11.329Z,97.29
2022-11-05T07:39:37.677Z,96.86
2022-11-05T07:42:04.099Z,96.48
2022-11-05T07:44:30.628Z,96.18
2022-11-05T07:46:56.959Z,95.66
2022-11-05T07:49:23.269Z,95.73
2022-11-05T07:51:49.556Z,95.74
2022-11-05T07:54:15.881Z,94.81
2022-11-05T07:56:42.181Z,94.27
2022-11-05T07:59:08.621Z,94.18
2022-11-05T08:01:35.110Z,94.27
2022-11-05T08:04:01.536Z,94.21
2022-11-05T08:06:27.862Z,94.51
2022-11-05T08:08:54.211Z,94.43
2022-11-05T08:11:20.524Z,94.10
2022-11-05T08:13:46.843Z,93.74
2022-11-05T08:16:13.177Z,93.12
2022-11-05T08:18:39.488Z,92.66
2022-11-05T08:21:06.121Z,92.79
2022-11-05T08:23:32.708Z,92.51
2022-11-05T08:26:01.956Z,92.62
2022-11-05T08:28:28.310Z,92.26
2022-11-05T08:30:56.507Z,91.78
2022-11-05T08:33:24.688Z,91.39
2022-11-05T08:35:51.270Z,90.87
2022-11-05T08:38:19.485Z,90.47
2022-11-05T08:40:54.332Z,90.83
2022-11-05T08:43:20.812Z,90.95
2022-11-05T08:45:47.164Z,90.50
2022-11-05T08:48:15.854Z,90.45
2022-11-05T08:50:43.184Z,89.97
2022-11-05T08:53:11.325Z,90.42
2022-11-05T08:55:38.178Z,90.61
2022-11-05T08:58:06.705Z,90.92
2022-11-05T09:00:35.604Z,91.04
2022-11-05T09:03:03.979Z,91.32
2022-11-05T09:05:31.779Z,91.01
2022-11-05T09:08:01.318Z,90.64
2022-11-05T09:10:28.193Z,89.22
2022-11-05T09:12:54.624Z,88.01
2022-11-05T09:15:20.924Z,87.84
2022-11-05T09:17:47.252Z,87.68
2022-11-05T09:20:13.637Z,87.27
2022-11-05T09:22:43.253Z,86.69
2022-11-05T09:25:10.124Z,86.91
2022-11-05T09:27:36.455Z,86.14
2022-11-05T09:30:03.742Z,85.83
2022-11-05T09:32:33.265Z,85.87
2022-11-05T09:34:59.583Z,86.09
2022-11-05T09:37:26.083Z,86.87
2022-11-05T09:39:52.814Z,87.59
2022-11-05T09:42:20.665Z,86.81
2022-11-05T09:44:52.167Z,87.17
2022-11-05T09:47:30.671Z,87.00
2022-11-05T09:50:00.835Z,87.17
2022-11-05T09:52:30.399Z,87.69
2022-11-05T09:54:57.352Z,87.90
2022-11-05T09:57:29.394Z,86.80
2022-11-05T09:59:59.127Z,85.74
2022-11-05T10:02:30.440Z,85.64
2022-11-05T10:05:10.356Z,84.80
2022-11-05T10:07:53.998Z,83.41
2022-11-05T10:10:43.274Z,84.33
2022-11-05T10:13:32.826Z,84.79
2022-11-05T10:16:13.373Z,83.88
2022-11-05T10:18:42.722Z,83.18
2022-11-05T10:21:17.093Z,82.90
2022-11-05T10:23:47.922Z,83.13
2022-11-05T10:26:19.194Z,82.76
2022-11-05T10:28:45.989Z,81.48
2022-11-05T10:31:16.004Z,81.32
2022-11-05T10:33:48.557Z,82.29
2022-11-05T10:36:24.996Z,81.56
2022-11-05T10:38:52.950Z,81.78
2022-11-05T10:41:39.306Z,80.70
2022-11-05T10:44:18.920Z,81.70
2022-11-05T10:47:29.329Z,81.30
2022-11-05T10:50:01.514Z,82.21
2022-11-05T10:52:35.993Z,81.43
2022-11-05T10:55:41.206Z,80.18
2022-11-05T10:58:29.241Z,80.63
2022-11-05T11:00:55.552Z,79.80
2022-11-05T11:03:49.890Z,80.00
2022-11-05T11:06:16.141Z,80.31
2022-11-05T11:08:46.075Z,79.81
2022-11-05T11:11:26.230Z,80.53
2022-11-05T11:14:00.146Z,78.59
2022-11-05T11:16:29.162Z,77.89
2022-11-05T11:19:00.222Z,78.25
2022-11-05T11:21:28.657Z,76.83
2022-11-05T11:24:03.883Z,76.89
2022-11-05T11:26:37.288Z,76.43
2022-11-05T11:29:15.473Z,75.78
2022-11-05T11:31:42.076Z,75.55
2022-11-05T11:34:15.209Z,74.83
2022-11-05T11:36:50.814Z,74.41
2022-11-05T11:39:21.959Z,75.00
2022-11-05T11:41:54.764Z,75.09
2022-11-05T11:44:24.721Z,74.55
2022-11-05T11:46:53.313Z,74.13
2022-11-05T11:49:37.956Z,74.60
2022-11-05T11:52:11.065Z,74.41
2022-11-05T11:54:37.418Z,74.74
2022-11-05T11:57:20.936Z,73.01
2022-11-05T12:00:07.814Z,73.03
2022-11-05T12:03:01.599Z,73.31
2022-11-05T12:06:02.385Z,72.70
2022-11-05T12:09:00.600Z,71.29
2022-11-05T12:11:42.979Z,70.52
2022-11-05T12:14:21.625Z,70.09
2022-11-05T12:16:58.218Z,68.89
2022-11-05T12:19:42.329Z,69.17
2022-11-05T12:22:30.262Z,69.33
2022-11-05T12:25:13.497Z,70.97
2022-11-05T12:27:58.191Z,66.93
2022-11-05T12:30:24.625Z,68.15
2022-11-05T12:33:05.932Z,65.86
2022-11-05T12:35:45.759Z,66.79
2022-11-05T12:38:37.150Z,67.58
2022-11-05T12:41:14.235Z,66.12
2022-11-05T12:44:00.997Z,67.63
2022-11-05T12:46:37.572Z,65.76
2022-11-05T12:49:25.409Z,67.38
2022-11-05T12:52:03.736Z,67.13
2022-11-05T12:54:53.083Z,65.20
2022-11-05T12:57:21.163Z,67.30
2022-11-05T13:00:01.477Z,68.15
2022-11-05T13:02:41.666Z,68.92
2022-11-05T13:05:34.461Z,69.42
2022-11-05T13:08:08.156Z,68.34
2022-11-05T13:10:40.822Z,67.12
2022-11-05T13:13:22.980Z,67.73
2022-11-05T13:15:57.205Z,70.25
2022-11-05T13:18:34.875Z,67.69
2022-11-05T13:21:05.253Z,68.19
2022-11-05T13:23:35.227Z,68.35
2022-11-05T13:26:20.084Z,69.37
2022-11-05T13:29:08.351Z,68.77
2022-11-05T13:31:45.420Z,68.72
2022-11-05T13:34:13.004Z,68.93
2022-11-05T13:37:05.229Z,70.32
2022-11-05T13:39:36.949Z,68.88
2022-11-05T13:42:21.956Z,68.74
2022-11-05T13:44:57.045Z,67.93
2022-11-05T13:47:47.132Z,68.12
2022-11-05T13:50:56.306Z,68.29
2022-11-05T13:53:42.748Z,67.30
2022-11-05T13:56:37.155Z,68.20
2022-11-05T13:59:22.390Z,67.51
2022-11-05T14:01:57.039Z,67.29
2022-11-05T14:04:32.531Z,68.29
2022-11-05T14:07:12.782Z,68.46
2022-11-05T14:09:40.526Z,68.71
2022-11-05T14:12:19.453Z,68.60
2022-11-05T14:14:48.542Z,69.01
2022-11-05T14:17:25.945Z,69.96
2022-11-05T14:20:04.421Z,70.14
2022-11-05T14:22:33.717Z,70.12
2022-11-05T14:25:01.480Z,71.35
2022-11-05T14:27:36.966Z,70.20
2022-11-05T14:30:40.930Z,69.75
2022-11-05T14:33:37.245Z,69.62
2022-11-05T14:36:21.645Z,70.65
2022-11-05T14:38:53.968Z,70.67
2022-11-05T14:41:21.321Z,70.73
2022-11-05T14:44:06.311Z,70.40
2022-11-05T14:46:45.102Z,71.56
2022-11-05T14:49:27.778Z,70.93
2022-11-05T14:51:57.590Z,70.69
2022-11-05T14:54:36.667Z,70.60
2022-11-05T14:57:03.773Z,71.07
2022-11-05T14:59:30.053Z,70.89
2022-11-05T15:02:13.135Z,71.24
2022-11-05T15:04:39.690Z,70.97
2022-11-05T15:07:05.959Z,71.10
2022-11-05T15:09:41.180Z,72.00
2022-11-05T15:12:16.597Z,71.81
2022-11-05T15:14:57.600Z,72.09
2022-11-05T15:18:05.609Z,72.44
2022-11-05T15:20:47.823Z,72.59
2022-11-05T15:23:20.829Z,72.32
2022-11-05T15:26:10.948Z,73.00
2022-11-05T15:28:42.068Z,73.87
2022-11-05T15:31:14.503Z,74.99
2022-11-05T15:33:42.729Z,75.44
2022-11-05T15:36:30.445Z,75.84
2022-11-05T15:39:27.364Z,75.66
2022-11-05T15:41:44.605Z,76.42
2022-11-05T15:44:28.224Z,76.19
2022-11-05T15:47:16.722Z,76.34
2022-11-05T15:49:49.175Z,76.59
2022-11-05T15:52:18.002Z,76.67
2022-11-05T15:54:44.910Z,76.34
2022-11-05T15:57:40.274Z,76.88
2022-11-05T16:00:14.760Z,77.57
2022-11-05T16:02:41.488Z,77.63
2022-11-05T16:05:13.435Z,77.07
2022-11-05T16:07:45.135Z,77.33
2022-11-05T16:10:28.653Z,77.60
2022-11-05T16:12:55.364Z,77.04
2022-11-05T16:15:25.732Z,76.99
2022-11-05T16:17:55.216Z,77.40
2022-11-05T16:20:34.142Z,77.42
2022-11-05T16:23:06.233Z,77.19
2022-11-05T16:25:43.500Z,76.93
2022-11-05T16:28:24.801Z,77.22
2022-11-05T16:31:02.518Z,77.16
2022-11-05T16:33:34.998Z,77.45
2022-11-05T16:36:01.357Z,76.83
2022-11-05T16:38:27.728Z,77.00
2022-11-05T16:40:54.048Z,76.90
2022-11-05T16:43:22.891Z,76.51
2022-11-05T16:45:49.695Z,76.67
2022-11-05T16:48:16.574Z,76.93
2022-11-05T16:50:43.165Z,76.71
2022-11-05T16:53:09.734Z,77.07
2022-11-05T16:55:38.722Z,76.67
2022-11-05T16:58:07.233Z,76.99
2022-11-05T17:00:33.672Z,77.10
2022-11-05T17:02:59.993Z,77.51
2022-11-05T17:05:29.852Z,77.60
2022-11-05T17:07:56.717Z,77.66
2022-11-05T17:10:24.846Z,77.60
2022-11-05T17:12:51.640Z,77.55
2022-11-05T17:15:29.355Z,78.14
2022-11-05T17:17:56.754Z,77.93
2022-11-05T17:20:29.025Z,78.38
2022-11-05T17:22:56.568Z,78.43
2022-11-05T17:25:23.573Z,78.71
2022-11-05T17:27:50.167Z,78.85
2022-11-05T17:30:17.260Z,78.96
2022-11-05T17:32:43.737Z,79.42
2022-11-05T17:35:10.685Z,78.82
2022-11-05T17:37:37.116Z,79.09
2022-11-05T17:40:05.802Z,79.05
2022-11-05T17:42:32.392Z,79.10
2022-11-05T17:44:59.183Z,79.12
2022-11-05T17:47:28.348Z,79.09
2022-11-05T17:49:54.821Z,79.24
2022-11-05T17:52:21.248Z,79.08
2022-11-05T17:54:47.559Z,78.65
2022-11-05T17:57:13.856Z,78.94
2022-11-05T17:59:40.187Z,78.53
2022-11-05T18:02:06.577Z,78.35
2022-11-05T18:04:32.993Z,78.39
2022-11-05T18:06:59.310Z,78.19
2022-11-05T18:09:25.704Z,77.91
2022-11-05T18:11:52.000Z,77.50
2022-11-05T18:14:23.701Z,77.27
2022-11-05T18:16:51.164Z,77.09
2022-11-05T18:19:17.606Z,77.07
2022-11-05T18:21:43.996Z,77.12
2022-11-05T18:24:10.653Z,76.90
2022-11-05T18:26:36.991Z,76.69
2022-11-05T18:29:05.539Z,76.84
2022-11-05T18:31:32.036Z,76.76
2022-11-05T18:33:59.997Z,76.27
2022-11-05T18:36:28.845Z,76.29
2022-11-05T18:38:57.280Z,76.20
2022-11-05T18:41:24.034Z,76.19
2022-11-05T18:43:50.369Z,75.98
2022-11-05T18:46:43.267Z,75.92
2022-11-05T18:49:03.861Z,75.79
2022-11-05T18:51:30.188Z,75.83
2022-11-05T18:53:56.479Z,75.90
2022-11-05T18:56:23.307Z,75.80
2022-11-05T18:58:50.583Z,75.91
2022-11-05T19:01:20.651Z,75.97
2022-11-05T19:03:47.852Z,75.66
2022-11-05T19:06:14.228Z,75.54
2022-11-05T19:08:41.235Z,75.34
2022-11-05T19:11:20.036Z,75.47
2022-11-05T19:13:46.466Z,75.63
2022-11-05T19:16:19.304Z,75.70
2022-11-05T19:18:45.846Z,76.11
2022-11-05T19:21:15.036Z,76.12
2022-11-05T19:23:41.494Z,76.11
2022-11-05T19:26:09.989Z,76.30
2022-11-05T19:28:36.739Z,76.39
2022-11-05T19:31:03.972Z,76.46
2022-11-05T19:33:30.459Z,76.56
2022-11-05T19:35:57.131Z,75.90
2022-11-05T19:38:24.384Z,76.09
2022-11-05T19:40:50.764Z,76.24
2022-11-05T19:43:17.264Z,75.83
2022-11-05T19:45:45.043Z,76.61
2022-11-05T19:48:17.856Z,76.46
2022-11-05T19:50:45.679Z,76.28
2022-11-05T19:53:12.116Z,76.13
2022-11-05T19:55:40.286Z,76.27
2022-11-05T19:58:06.928Z,76.44
2022-11-05T20:00:33.607Z,76.15
2022-11-05T20:03:00.097Z,76.26
2022-11-05T20:05:26.836Z,76.28
2022-11-05T20:07:53.440Z,76.05
2022-11-05T20:10:19.966Z,76.10
2022-11-05T20:12:46.350Z,75.77
2022-11-05T20:15:12.756Z,75.76
2022-11-05T20:17:39.177Z,75.70
2022-11-05T20:20:07.188Z,75.92
2022-11-05T20:22:33.706Z,75.94
2022-11-05T20:25:00.045Z,75.67
2022-11-05T20:27:26.424Z,75.75
2022-11-05T20:29:52.785Z,76.11
2022-11-05T20:32:19.157Z,76.15
2022-11-05T20:34:45.599Z,76.19
2022-11-05T20:37:11.993Z,76.52
2022-11-05T20:39:38.428Z,77.29
2022-11-05T20:42:04.975Z,77.10
2022-11-05T20:44:31.411Z,76.92
2022-11-05T20:46:57.816Z,77.02
2022-11-05T20:49:25.574Z,77.18
2022-11-05T20:51:52.471Z,77.20
2022-11-05T20:54:18.874Z,77.37
2022-11-05T20:56:45.264Z,77.33
2022-11-05T20:59:11.650Z,76.96
2022-11-05T21:01:38.142Z,77.37
2022-11-05T21:04:04.732Z,77.86
2022-11-05T21:06:31.903Z,77.92
2022-11-05T21:08:58.333Z,78.36
2022-11-05T21:11:24.822Z,78.16
2022-11-05T21:13:51.246Z,78.26
2022-11-05T21:16:22.106Z,78.29
2022-11-05T21:18:48.497Z,78.23
2022-11-05T21:21:18.475Z,78.13
2022-11-05T21:23:44.933Z,78.26
2022-11-05T21:26:13.178Z,78.01
2022-11-05T21:28:40.635Z,78.18
2022-11-05T21:31:07.532Z,78.30
2022-11-05T21:33:34.617Z,77.94
2022-11-05T21:36:07.404Z,78.24
2022-11-05T21:38:33.828Z,78.28
2022-11-05T21:41:01.147Z,78.56
2022-11-05T21:43:27.524Z,78.75
2022-11-05T21:45:53.894Z,78.72
2022-11-05T21:48:20.262Z,78.72
2022-11-05T21:50:51.346Z,79.16
2022-11-05T21:53:18.165Z,78.88
2022-11-05T21:55:44.527Z,78.76
2022-11-05T21:58:16.202Z,78.82
2022-11-05T22:00:42.585Z,79.05
2022-11-05T22:03:08.932Z,78.93
2022-11-05T22:05:35.498Z,79.25
2022-11-05T22:08:01.911Z,78.83
2022-11-05T22:10:28.296Z,78.70
2022-11-05T22:12:54.740Z,78.61
2022-11-05T22:15:21.121Z,78.67
2022-11-05T22:17:50.356Z,79.00
2022-11-05T22:20:16.821Z,78.72
2022-11-05T22:22:43.623Z,78.55
2022-11-05T22:25:09.995Z,78.49
2022-11-05T22:27:36.377Z,78.49
2022-11-05T22:30:02.925Z,78.55
2022-11-05T22:32:29.308Z,79.07
2022-11-05T22:34:55.691Z,79.37
2022-11-05T22:37:22.092Z,79.36
2022-11-05T22:39:48.601Z,79.33
2022-11-05T22:42:15.045Z,78.85
2022-11-05T22:44:41.691Z,78.95
2022-11-05T22:47:08.135Z,79.22
2022-11-05T22:49:34.726Z,79.49
2022-11-05T22:52:01.242Z,79.36
2022-11-05T22:54:27.763Z,79.36
2022-11-05T22:56:54.161Z,79.20
2022-11-05T22:59:20.545Z,79.42
2022-11-05T23:01:47.653Z,79.34
2022-11-05T23:04:15.067Z,79.46
2022-11-05T23:06:42.106Z,79.14
2022-11-05T23:09:24.333Z,79.02
2022-11-05T23:11:52.799Z,79.31
2022-11-05T23:14:19.824Z,79.40
2022-11-05T23:16:46.204Z,79.51
2022-11-05T23:19:12.929Z,79.54
2022-11-05T23:21:39.307Z,79.56
2022-11-05T23:24:06.085Z,79.54
2022-11-05T23:26:34.149Z,79.13
2022-11-05T23:29:00.513Z,78.65
2022-11-05T23:31:26.885Z,78.48
2022-11-05T23:33:53.247Z,78.82
2022-11-05T23:36:19.603Z,78.60
2022-11-05T23:38:46.001Z,78.82
2022-11-05T23:41:12.357Z,78.51
2022-11-05T23:43:38.750Z,77.77
2022-11-05T23:46:05.245Z,78.06
2022-11-05T23:48:33.210Z,78.29
2022-11-05T23:51:02.591Z,78.53
2022-11-05T23:53:30.521Z,78.43
2022-11-05T23:56:14.623Z,78.67
2022-11-05T23:58:42.104Z,78.83
